Beiseker, Canada
Current Conditions -  °F | °C
As of 3:00 AM on Thursday 23 Oct 2014 (Local Time) from CYYC Reporting Station
Broken Clouds Broken Clouds  
Wind Chill:   Ceiling: 25000
Heat Index:   Visibility: 15mi
Dew Point:   Wind: 2mph
Humidity: 62%   Direction: NA
Pressure: 29.56"   Gusts: NA
Location:  51.38°N, 113.53°W
Report Text: CYYC 230900Z VRB02KT 15SM FEW190 BKN250 08/01 A2956 RMK AC2CI3 SLP020 DENSITY ALT 3900FT
Loading
Personal Weather Stations






























Interactive Weather Map
Tropical Storm Tracking
New forecast layout! Learn more

10-Day Weather Forecast

Advertisements
Track Severe Weather on mobile